createdAt,value
2018-07-20T00:01:19.449Z,17.20
2018-07-20T00:03:56.904Z,17.10
2018-07-20T00:06:31.980Z,17.10
2018-07-20T00:09:09.498Z,17.10
2018-07-20T00:11:46.105Z,17.00
2018-07-20T00:14:24.332Z,17.00
2018-07-20T00:16:59.021Z,17.00
2018-07-20T00:19:34.415Z,17.00
2018-07-20T00:22:09.780Z,17.00
2018-07-20T00:24:46.328Z,17.10
2018-07-20T00:27:21.280Z,17.10
2018-07-20T00:29:56.379Z,17.20
2018-07-20T00:32:38.823Z,17.20
2018-07-20T00:35:16.513Z,17.30
2018-07-20T00:37:51.956Z,17.30
2018-07-20T00:40:27.809Z,17.30
2018-07-20T00:43:12.277Z,17.30
2018-07-20T00:45:51.690Z,17.20
2018-07-20T00:48:27.539Z,17.20
2018-07-20T00:51:02.541Z,17.20
2018-07-20T00:53:37.529Z,17.20
2018-07-20T00:56:15.896Z,17.10
2018-07-20T00:58:51.386Z,17.20
2018-07-20T01:01:26.903Z,17.20
2018-07-20T01:04:02.265Z,17.20
2018-07-20T01:06:38.608Z,17.10
2018-07-20T01:09:13.479Z,17.10
2018-07-20T01:11:52.570Z,17.10
2018-07-20T01:14:28.704Z,17.10
2018-07-20T01:17:03.243Z,17.00
2018-07-20T01:19:37.786Z,17.00
2018-07-20T01:22:13.367Z,17.00
2018-07-20T01:24:47.659Z,16.90
2018-07-20T01:27:23.119Z,16.80
2018-07-20T01:29:57.433Z,16.80
2018-07-20T01:32:32.038Z,16.70
2018-07-20T01:35:06.372Z,16.70
2018-07-20T01:37:41.495Z,16.70
2018-07-20T01:40:16.396Z,16.70
2018-07-20T01:42:51.270Z,16.70
2018-07-20T01:45:26.245Z,16.80
2018-07-20T01:48:01.261Z,16.80
2018-07-20T01:50:36.917Z,16.90
2018-07-20T01:53:11.981Z,16.90
2018-07-20T01:55:47.267Z,17.00
2018-07-20T01:58:22.612Z,17.00
2018-07-20T02:00:57.736Z,17.00
2018-07-20T02:03:32.668Z,17.00
2018-07-20T02:06:08.523Z,17.00
2018-07-20T02:08:44.796Z,17.00
2018-07-20T02:11:19.307Z,17.00
2018-07-20T02:13:53.614Z,16.90
2018-07-20T02:16:28.636Z,16.90
2018-07-20T02:19:03.701Z,16.80
2018-07-20T02:21:38.291Z,16.70
2018-07-20T02:24:13.533Z,16.70
2018-07-20T02:26:50.328Z,16.60
2018-07-20T02:29:26.259Z,16.60
2018-07-20T02:32:03.479Z,16.60
2018-07-20T02:34:38.628Z,16.50
2018-07-20T02:37:14.463Z,16.50
2018-07-20T02:39:48.850Z,16.50
2018-07-20T02:42:23.750Z,16.50
2018-07-20T02:44:59.099Z,16.40
2018-07-20T02:47:34.367Z,16.40
2018-07-20T02:50:10.400Z,16.40
2018-07-20T02:52:46.353Z,16.50
2018-07-20T02:55:20.667Z,16.50
2018-07-20T02:57:56.524Z,16.50
2018-07-20T03:00:30.681Z,16.50
2018-07-20T03:03:05.202Z,16.50
2018-07-20T03:05:39.395Z,16.60
2018-07-20T03:08:15.216Z,16.60
2018-07-20T03:10:50.065Z,16.60
2018-07-20T03:13:32.572Z,16.60
2018-07-20T03:16:08.774Z,16.60
2018-07-20T03:18:43.607Z,16.60
2018-07-20T03:21:21.022Z,16.60
2018-07-20T03:23:55.267Z,16.60
2018-07-20T03:26:29.628Z,16.60
2018-07-20T03:29:04.836Z,16.60
2018-07-20T03:31:39.477Z,16.60
2018-07-20T03:34:13.692Z,16.70
2018-07-20T03:36:48.461Z,16.70
2018-07-20T03:39:23.659Z,16.70
2018-07-20T03:41:58.110Z,16.70
2018-07-20T03:44:33.541Z,16.70
2018-07-20T03:47:08.939Z,16.70
2018-07-20T03:49:44.735Z,16.70
2018-07-20T03:52:20.858Z,16.80
2018-07-20T03:54:56.355Z,16.70
2018-07-20T03:57:32.166Z,16.80
2018-07-20T04:00:12.333Z,16.80
2018-07-20T04:02:47.856Z,16.70
2018-07-20T04:05:25.054Z,16.70
2018-07-20T04:07:59.679Z,16.70
2018-07-20T04:10:33.928Z,16.70
2018-07-20T04:13:10.480Z,16.70
2018-07-20T04:15:46.036Z,16.70
2018-07-20T04:18:24.964Z,16.80
2018-07-20T04:21:01.368Z,16.90
2018-07-20T04:23:37.281Z,16.90
2018-07-20T04:26:12.191Z,16.90
2018-07-20T04:28:47.992Z,17.00
2018-07-20T04:31:23.481Z,17.10
2018-07-20T04:33:59.171Z,17.10
2018-07-20T04:36:33.821Z,17.20
2018-07-20T04:39:12.715Z,17.20
2018-07-20T04:41:47.870Z,17.30
2018-07-20T04:44:22.856Z,17.30
2018-07-20T04:47:02.415Z,17.40
2018-07-20T04:49:40.566Z,17.40
2018-07-20T04:52:18.523Z,17.50
2018-07-20T04:54:54.731Z,17.60
2018-07-20T04:57:30.236Z,17.60
2018-07-20T05:00:10.790Z,17.70
2018-07-20T05:02:45.438Z,17.70
2018-07-20T05:05:20.658Z,17.80
2018-07-20T05:10:34.090Z,18.00
2018-07-20T05:13:10.468Z,18.10
2018-07-20T05:15:45.604Z,18.20
2018-07-20T05:18:20.880Z,18.20
2018-07-20T05:20:56.212Z,18.20
2018-07-20T05:23:31.418Z,18.20
2018-07-20T05:26:07.776Z,18.20
2018-07-20T05:28:43.116Z,18.20
2018-07-20T05:31:19.411Z,18.20
2018-07-20T05:33:54.601Z,18.20
2018-07-20T05:36:29.087Z,18.40
2018-07-20T05:39:05.024Z,18.50
2018-07-20T05:41:39.345Z,18.50
2018-07-20T05:44:13.607Z,18.70
2018-07-20T05:46:47.715Z,18.80
2018-07-20T05:49:22.552Z,18.90
2018-07-20T05:51:59.230Z,18.90
2018-07-20T05:54:34.378Z,18.80
2018-07-20T05:57:08.708Z,19.00
2018-07-20T06:02:22.112Z,19.00
2018-07-20T06:04:57.751Z,19.00
2018-07-20T06:07:32.996Z,19.10
2018-07-20T06:10:10.380Z,19.20
2018-07-20T06:12:44.950Z,19.30
2018-07-20T06:15:22.952Z,19.40
2018-07-20T06:17:58.113Z,19.50
2018-07-20T06:20:33.134Z,19.70
2018-07-20T06:23:07.910Z,19.80
2018-07-20T06:25:42.638Z,20.00
2018-07-20T06:30:53.459Z,20.40
2018-07-20T06:33:30.342Z,20.40
2018-07-20T06:36:04.765Z,20.40
2018-07-20T06:38:38.985Z,20.50
2018-07-20T06:41:14.635Z,20.60
2018-07-20T06:43:49.333Z,20.50
2018-07-20T06:46:24.271Z,20.60
2018-07-20T06:48:58.487Z,20.80
2018-07-20T06:51:34.284Z,20.90
2018-07-20T06:54:08.694Z,21.20
2018-07-20T06:56:47.708Z,21.20
2018-07-20T06:59:23.341Z,21.30
2018-07-20T07:04:38.910Z,21.60
2018-07-20T07:07:19.117Z,21.80
2018-07-20T07:09:55.657Z,21.90
2018-07-20T07:12:30.063Z,22.00
2018-07-20T07:15:04.785Z,21.90
2018-07-20T07:17:39.757Z,22.00
2018-07-20T07:20:13.898Z,21.90
2018-07-20T07:22:49.027Z,21.80
2018-07-20T07:25:23.850Z,21.80
2018-07-20T07:28:03.412Z,21.90
2018-07-20T07:30:37.585Z,22.00
2018-07-20T07:33:13.317Z,22.00
2018-07-20T07:35:54.386Z,21.80
2018-07-20T07:38:28.612Z,21.70
2018-07-20T07:43:39.491Z,21.70
2018-07-20T07:46:16.398Z,21.90
2018-07-20T07:48:54.934Z,22.00
2018-07-20T07:51:30.824Z,21.90
2018-07-20T07:54:07.976Z,22.00
2018-07-20T07:56:46.475Z,22.00
2018-07-20T07:59:23.098Z,22.30
2018-07-20T08:01:57.414Z,22.50
2018-07-20T08:04:33.025Z,22.70
2018-07-20T08:07:07.511Z,22.80
2018-07-20T08:09:43.746Z,23.00
2018-07-20T08:12:18.048Z,23.20
2018-07-20T08:14:52.775Z,23.30
2018-07-20T08:17:27.780Z,23.40
2018-07-20T08:20:02.682Z,23.60
2018-07-20T08:22:40.003Z,23.80
2018-07-20T08:25:15.676Z,24.00
2018-07-20T08:27:51.691Z,23.70
2018-07-20T08:30:25.867Z,23.40
2018-07-20T08:33:00.643Z,23.40
2018-07-20T08:35:36.441Z,23.30
2018-07-20T08:38:11.875Z,23.30
2018-07-20T08:40:46.808Z,23.40
2018-07-20T08:45:55.621Z,23.60
2018-07-20T08:48:33.988Z,23.60
2018-07-20T08:51:10.040Z,23.50
2018-07-20T08:53:48.777Z,23.30
2018-07-20T08:56:24.631Z,23.30
2018-07-20T08:59:02.109Z,23.40
2018-07-20T09:01:38.265Z,23.40
2018-07-20T09:04:12.567Z,23.40
2018-07-20T09:06:50.746Z,23.30
2018-07-20T09:09:32.591Z,23.40
2018-07-20T09:12:10.630Z,23.60
2018-07-20T09:14:54.265Z,24.00
2018-07-20T09:17:32.420Z,24.40
2018-07-20T09:20:07.926Z,24.40
2018-07-20T09:22:45.568Z,24.50
2018-07-20T09:25:24.596Z,24.40
2018-07-20T09:28:03.012Z,24.30
2018-07-20T09:30:40.967Z,24.50
2018-07-20T09:33:21.203Z,24.70
2018-07-20T09:35:57.386Z,24.80
2018-07-20T09:38:38.668Z,24.70
2018-07-20T09:41:17.691Z,24.60
2018-07-20T09:43:56.419Z,24.60
2018-07-20T09:46:37.012Z,24.70
2018-07-20T09:49:13.799Z,25.00
2018-07-20T09:51:48.572Z,25.20
2018-07-20T09:54:24.492Z,25.30
2018-07-20T09:57:00.590Z,25.30
2018-07-20T09:59:44.658Z,25.30
2018-07-20T10:02:20.397Z,25.10
2018-07-20T10:04:55.787Z,25.30
2018-07-20T10:07:32.794Z,25.50
2018-07-20T10:10:07.240Z,25.30
2018-07-20T10:12:48.261Z,25.20
2018-07-20T10:15:22.566Z,25.00
2018-07-20T10:18:01.352Z,25.10
2018-07-20T10:20:42.019Z,25.10
2018-07-20T10:23:18.738Z,25.30
2018-07-20T10:28:28.535Z,25.60
2018-07-20T10:37:04.785Z,26.00
2018-07-20T10:42:49.635Z,25.80
2018-07-20T10:45:29.356Z,25.90
2018-07-20T10:50:46.864Z,26.10
2018-07-20T10:56:00.790Z,26.30
2018-07-20T10:58:41.504Z,26.30
2018-07-20T11:01:20.146Z,26.40
2018-07-20T11:03:56.667Z,26.60
2018-07-20T11:06:32.314Z,26.80
2018-07-20T11:09:12.180Z,26.90
2018-07-20T11:11:49.154Z,26.90
2018-07-20T11:14:24.903Z,26.90
2018-07-20T11:17:00.765Z,26.80
2018-07-20T11:19:36.821Z,26.80
2018-07-20T11:22:12.447Z,27.00
2018-07-20T11:24:48.833Z,27.30
2018-07-20T11:27:24.917Z,27.60
2018-07-20T11:29:59.620Z,27.90
2018-07-20T11:32:39.454Z,27.60
2018-07-20T11:35:18.093Z,27.60
2018-07-20T11:37:55.657Z,28.00
2018-07-20T11:40:31.007Z,27.60
2018-07-20T11:43:07.039Z,27.40
2018-07-20T11:45:42.278Z,27.40
2018-07-20T11:48:18.409Z,27.60
2018-07-20T11:50:53.948Z,27.90
2018-07-20T11:53:33.884Z,28.30
2018-07-20T11:56:10.958Z,28.60
2018-07-20T11:58:47.823Z,28.60
2018-07-20T12:01:22.722Z,29.00
2018-07-20T12:03:58.348Z,29.10
2018-07-20T12:06:34.505Z,29.00
2018-07-20T12:09:12.724Z,29.10
2018-07-20T12:14:26.046Z,29.40
2018-07-20T12:17:04.122Z,29.30
2018-07-20T12:19:43.712Z,29.90
2018-07-20T12:22:19.880Z,30.40
2018-07-20T12:24:59.877Z,30.40
2018-07-20T12:27:36.709Z,30.40
2018-07-20T12:30:12.956Z,30.50
2018-07-20T12:32:48.757Z,30.80
2018-07-20T12:35:24.772Z,31.40
2018-07-20T12:38:04.723Z,31.90
2018-07-20T12:40:40.212Z,32.20
2018-07-20T12:43:18.932Z,32.70
2018-07-20T12:45:55.485Z,33.50
2018-07-20T12:48:35.405Z,34.20
2018-07-20T12:51:11.135Z,34.80
2018-07-20T12:53:49.937Z,35.50
2018-07-20T12:56:25.987Z,35.80
2018-07-20T12:59:10.152Z,35.80
2018-07-20T13:01:47.332Z,36.10
2018-07-20T13:04:23.808Z,36.00
2018-07-20T13:07:02.411Z,36.00
2018-07-20T13:09:41.736Z,36.50
2018-07-20T13:12:18.326Z,36.50
2018-07-20T13:14:52.793Z,36.60
2018-07-20T13:17:30.387Z,36.20
2018-07-20T13:20:07.117Z,34.90
2018-07-20T13:22:47.922Z,34.10
2018-07-20T13:25:24.877Z,33.80
2018-07-20T13:28:03.318Z,33.90
2018-07-20T13:30:42.720Z,34.30
2018-07-20T13:33:19.237Z,35.10
2018-07-20T13:35:54.811Z,35.40
2018-07-20T13:38:29.876Z,35.90
2018-07-20T13:41:04.094Z,36.40
2018-07-20T13:43:38.519Z,36.90
2018-07-20T13:46:15.283Z,37.00
2018-07-20T13:48:49.706Z,37.70
2018-07-20T13:51:25.569Z,38.60
2018-07-20T13:54:08.363Z,39.10
2018-07-20T13:56:45.243Z,39.80
2018-07-20T14:02:07.056Z,40.80
2018-07-20T14:04:47.684Z,40.40
2018-07-20T14:07:25.901Z,40.40
2018-07-20T14:10:00.526Z,39.40
2018-07-20T14:12:36.047Z,39.80
2018-07-20T14:15:13.745Z,40.80
2018-07-20T14:17:51.648Z,41.10
2018-07-20T14:20:33.925Z,41.40
2018-07-20T14:23:09.296Z,40.80
2018-07-20T14:25:46.156Z,40.90
2018-07-20T14:28:23.236Z,40.90
2018-07-20T14:30:57.695Z,40.90
2018-07-20T14:33:36.186Z,40.30
2018-07-20T14:36:14.052Z,40.70
2018-07-20T14:38:49.613Z,41.70
2018-07-20T14:41:27.408Z,42.20
2018-07-20T14:44:01.756Z,42.80
2018-07-20T14:46:39.327Z,43.60
2018-07-20T14:49:19.574Z,44.60
2018-07-20T14:51:56.894Z,45.00
2018-07-20T14:54:35.497Z,45.40
2018-07-20T14:57:09.591Z,45.20
2018-07-20T14:59:44.219Z,45.90
2018-07-20T15:02:19.760Z,45.80
2018-07-20T15:07:53.915Z,46.70
2018-07-20T15:10:32.682Z,47.20
2018-07-20T15:13:08.702Z,47.10
2018-07-20T15:15:48.254Z,47.40
2018-07-20T15:18:23.331Z,47.00
2018-07-20T15:21:00.111Z,46.80
2018-07-20T15:23:35.781Z,46.60
2018-07-20T15:26:11.976Z,46.40
2018-07-20T15:28:51.587Z,46.20
2018-07-20T15:31:32.191Z,46.20
2018-07-20T15:34:09.341Z,46.40
2018-07-20T15:36:43.788Z,46.30
2018-07-20T15:39:20.383Z,46.70
2018-07-20T15:41:54.965Z,45.90
2018-07-20T15:44:30.129Z,46.00
2018-07-20T15:47:07.127Z,46.50
2018-07-20T15:49:42.934Z,46.20
2018-07-20T15:54:55.625Z,46.30
2018-07-20T15:57:37.275Z,47.40
2018-07-20T16:00:18.000Z,47.50
2018-07-20T16:02:56.026Z,46.80
2018-07-20T16:05:30.663Z,47.00
2018-07-20T16:08:15.423Z,46.60
2018-07-20T16:10:56.217Z,45.60
2018-07-20T16:13:31.631Z,44.70
2018-07-20T16:16:09.225Z,44.20
2018-07-20T16:18:53.408Z,43.10
2018-07-20T16:21:31.429Z,42.60
2018-07-20T16:24:07.915Z,42.70
2018-07-20T16:26:42.478Z,42.30
2018-07-20T16:29:17.832Z,41.20
2018-07-20T16:31:54.485Z,41.90
2018-07-20T16:34:31.374Z,42.80
2018-07-20T16:37:08.255Z,44.10
2018-07-20T16:42:25.136Z,45.20
2018-07-20T16:45:09.385Z,46.10
2018-07-20T16:47:45.016Z,46.70
2018-07-20T16:50:19.812Z,47.00
2018-07-20T16:52:54.791Z,46.80
2018-07-20T16:55:30.000Z,45.90
2018-07-20T16:58:06.593Z,45.70
2018-07-20T17:00:47.308Z,45.50
2018-07-20T17:03:22.743Z,45.50
2018-07-20T17:05:58.943Z,44.80
2018-07-20T17:08:41.587Z,44.50
2018-07-20T17:11:20.782Z,43.70
2018-07-20T17:13:58.666Z,43.10
2018-07-20T17:16:32.876Z,42.60
2018-07-20T17:19:08.963Z,41.50
2018-07-20T17:21:44.318Z,40.60
2018-07-20T17:24:20.616Z,40.40
2018-07-20T17:26:56.087Z,40.70
2018-07-20T17:29:32.132Z,41.00
2018-07-20T17:32:06.332Z,40.50
2018-07-20T17:34:41.575Z,41.00
2018-07-20T17:37:15.818Z,41.40
2018-07-20T17:39:51.116Z,41.80
2018-07-20T17:42:28.227Z,41.60
2018-07-20T17:45:02.620Z,41.10
2018-07-20T17:47:36.860Z,40.60
2018-07-20T17:50:13.040Z,40.50
2018-07-20T17:52:49.438Z,40.20
2018-07-20T17:55:24.166Z,39.90
2018-07-20T17:57:59.010Z,39.40
2018-07-20T18:00:33.778Z,38.70
2018-07-20T18:03:12.599Z,38.30
2018-07-20T18:05:46.920Z,38.00
2018-07-20T18:10:56.938Z,37.40
2018-07-20T18:13:32.133Z,37.00
2018-07-20T18:16:07.062Z,36.50
2018-07-20T18:18:42.199Z,36.30
2018-07-20T18:21:17.752Z,35.50
2018-07-20T18:23:52.751Z,35.00
2018-07-20T18:26:26.967Z,34.40
2018-07-20T18:29:04.486Z,33.80
2018-07-20T18:31:39.478Z,33.00
2018-07-20T18:34:13.857Z,32.30
2018-07-20T18:36:48.664Z,31.50
2018-07-20T18:39:23.284Z,30.80
2018-07-20T18:41:57.575Z,30.20
2018-07-20T18:44:31.960Z,29.70
2018-07-20T18:47:06.205Z,29.40
2018-07-20T18:49:41.040Z,29.00
2018-07-20T18:52:15.413Z,28.70
2018-07-20T18:54:49.697Z,28.40
2018-07-20T18:57:23.820Z,28.20
2018-07-20T18:59:58.044Z,28.00
2018-07-20T19:02:33.292Z,27.70
2018-07-20T19:05:11.557Z,27.50
2018-07-20T19:07:45.687Z,27.30
2018-07-20T19:10:20.507Z,27.10
2018-07-20T19:12:55.576Z,27.00
2018-07-20T19:15:30.292Z,26.70
2018-07-20T19:18:04.614Z,26.60
2018-07-20T19:20:38.728Z,26.50
2018-07-20T19:23:13.051Z,26.30
2018-07-20T19:25:47.337Z,26.10
2018-07-20T19:28:22.591Z,26.00
2018-07-20T19:31:00.156Z,25.80
2018-07-20T19:33:37.465Z,25.70
2018-07-20T19:36:11.993Z,25.50
2018-07-20T19:38:47.676Z,25.30
2018-07-20T19:41:23.710Z,25.20
2018-07-20T19:43:59.056Z,25.10
2018-07-20T19:46:34.772Z,24.90
2018-07-20T19:49:10.784Z,24.90
2018-07-20T19:51:46.604Z,24.80
2018-07-20T19:54:22.646Z,24.70
2018-07-20T19:57:01.909Z,24.60
2018-07-20T19:59:36.266Z,24.40
2018-07-20T20:02:12.263Z,24.30
2018-07-20T20:04:47.892Z,24.20
2018-07-20T20:07:22.326Z,24.10
2018-07-20T20:09:57.267Z,24.00
2018-07-20T20:12:33.524Z,23.90
2018-07-20T20:15:08.868Z,23.80
2018-07-20T20:17:46.433Z,23.70
2018-07-20T20:20:23.572Z,23.60
2018-07-20T20:22:58.866Z,23.50
2018-07-20T20:25:33.819Z,23.40
2018-07-20T20:28:08.051Z,23.30
2018-07-20T20:30:42.225Z,23.20
2018-07-20T20:33:16.656Z,23.20
2018-07-20T20:35:52.195Z,23.10
2018-07-20T20:38:28.280Z,23.10
2018-07-20T20:41:04.944Z,23.00
2018-07-20T20:43:40.384Z,22.90
2018-07-20T20:46:16.944Z,22.80
2018-07-20T20:48:53.220Z,22.70
2018-07-20T20:51:29.384Z,22.70
2018-07-20T20:56:53.099Z,22.60
2018-07-20T20:59:30.611Z,22.50
2018-07-20T21:02:05.063Z,22.40
2018-07-20T21:04:40.924Z,22.40
2018-07-20T21:07:19.386Z,22.30
2018-07-20T21:09:55.616Z,22.30
2018-07-20T21:12:31.176Z,22.30
2018-07-20T21:15:07.136Z,22.20
2018-07-20T21:17:42.448Z,22.10
2018-07-20T21:20:17.679Z,22.10
2018-07-20T21:22:52.026Z,22.00
2018-07-20T21:25:30.134Z,22.00
2018-07-20T21:28:05.793Z,21.90
2018-07-20T21:30:39.980Z,21.80
2018-07-20T21:33:14.375Z,21.80
2018-07-20T21:35:48.494Z,21.70
2018-07-20T21:38:23.445Z,21.70
2018-07-20T21:40:58.568Z,21.70
2018-07-20T21:43:32.793Z,21.60
2018-07-20T21:46:07.716Z,21.60
2018-07-20T21:48:44.037Z,21.60
2018-07-20T21:51:20.283Z,21.50
2018-07-20T21:53:54.867Z,21.50
2018-07-20T21:56:30.148Z,21.40
2018-07-20T21:59:06.374Z,21.30
2018-07-20T22:01:40.595Z,21.30
2018-07-20T22:04:15.056Z,21.30
2018-07-20T22:06:51.856Z,21.20
2018-07-20T22:09:26.184Z,21.20
2018-07-20T22:12:01.909Z,21.20
2018-07-20T22:14:36.242Z,21.10
2018-07-20T22:17:13.724Z,21.10
2018-07-20T22:19:48.136Z,21.10
2018-07-20T22:22:22.618Z,21.00
2018-07-20T22:24:57.079Z,20.90
2018-07-20T22:27:32.737Z,20.90
2018-07-20T22:30:09.072Z,20.90
2018-07-20T22:32:45.293Z,20.80
2018-07-20T22:35:20.723Z,20.70
2018-07-20T22:37:55.075Z,20.70
2018-07-20T22:43:33.746Z,20.60
2018-07-20T22:46:08.400Z,20.60
2018-07-20T22:48:43.814Z,20.50
2018-07-20T22:51:19.611Z,20.50
2018-07-20T22:53:54.560Z,20.50
2018-07-20T22:56:30.283Z,20.40
2018-07-20T22:59:08.974Z,20.40
2018-07-20T23:01:44.120Z,20.40
2018-07-20T23:04:18.761Z,20.30
2018-07-20T23:06:53.592Z,20.20
2018-07-20T23:09:32.675Z,20.20
2018-07-20T23:12:07.296Z,20.20
2018-07-20T23:14:42.609Z,20.10
2018-07-20T23:17:18.940Z,20.10
2018-07-20T23:19:56.617Z,20.10
2018-07-20T23:22:32.355Z,20.10
2018-07-20T23:25:06.824Z,20.10
2018-07-20T23:27:43.417Z,20.10
2018-07-20T23:30:21.170Z,20.20
2018-07-20T23:32:56.260Z,20.20
2018-07-20T23:35:30.643Z,20.20
2018-07-20T23:38:06.813Z,20.20
2018-07-20T23:40:42.306Z,20.20
2018-07-20T23:43:17.504Z,20.20
2018-07-20T23:45:52.215Z,20.20
2018-07-20T23:48:27.805Z,20.20
2018-07-20T23:51:03.416Z,20.20
2018-07-20T23:53:38.020Z,20.10
2018-07-20T23:56:15.051Z,20.10
2018-07-20T23:58:52.600Z,20.10
